Argenta, Texas
Current Conditions -  °F | °C
As of 8:55 AM on Saturday 01 Nov 2014 (Local Time) from KRBO Reporting Station
Clear Clear  
Wind Chill: 56°   Ceiling: Unl
Heat Index: 56°   Visibility: 10mi
Dew Point: 47°   Wind: 13mph
Humidity: 74%   Direction: 40°NE
Pressure: 30.34"   Gusts: 16mph
Location:  28.0654°N, 97.7489°W
Report Text: KRBO 011355Z AUTO 04011G14KT 10SM CLR 13/09 A3034 RMK AO2 T01310085
Loading
Personal Weather Stations






























Interactive Weather Map
Tropical Storm Tracking
New forecast layout! Learn more

10-Day Weather Forecast

Advertisements
Track Severe Weather on mobile